createdAt,value
2018-11-05T00:00:15.481Z,10.50
2018-11-05T00:01:05.695Z,16.00
2018-11-05T00:02:05.684Z,15.10
2018-11-05T00:03:05.684Z,10.80
2018-11-05T00:04:05.665Z,15.20
2018-11-05T00:05:05.696Z,5.70
2018-11-05T00:06:05.651Z,7.60
2018-11-05T00:07:05.633Z,7.90
2018-11-05T00:08:05.629Z,6.80
2018-11-05T00:09:05.611Z,6.60
2018-11-05T00:10:05.599Z,10.40
2018-11-05T00:11:05.644Z,13.00
2018-11-05T00:12:05.577Z,6.90
2018-11-05T00:13:05.567Z,5.30
2018-11-05T00:14:05.557Z,11.20
2018-11-05T00:15:05.545Z,10.30
2018-11-05T00:16:05.536Z,10.20
2018-11-05T00:17:05.564Z,3.30
2018-11-05T00:18:05.522Z,13.30
2018-11-05T00:19:05.502Z,8.50
2018-11-05T00:20:05.494Z,7.60
2018-11-05T00:21:05.489Z,13.60
2018-11-05T00:22:05.476Z,6.50
2018-11-05T00:23:05.493Z,6.40
2018-11-05T00:24:05.457Z,9.80
2018-11-05T00:25:05.435Z,4.90
2018-11-05T00:26:05.424Z,5.90
2018-11-05T00:27:05.416Z,9.60
2018-11-05T00:28:05.404Z,13.50
2018-11-05T00:29:05.432Z,9.30
2018-11-05T00:30:05.383Z,8.30
2018-11-05T00:31:15.272Z,11.10
2018-11-05T00:32:05.360Z,6.00
2018-11-05T00:33:05.350Z,13.70
2018-11-05T00:34:05.340Z,8.40
2018-11-05T00:35:05.368Z,13.20
2018-11-05T00:36:05.317Z,7.60
2018-11-05T00:37:05.308Z,9.70
2018-11-05T00:38:05.295Z,5.90
2018-11-05T00:39:05.286Z,12.00
2018-11-05T00:40:05.274Z,14.60
2018-11-05T00:41:05.306Z,10.00
2018-11-05T00:42:05.253Z,6.00
2018-11-05T00:43:05.324Z,6.80
2018-11-05T00:44:05.233Z,11.00
2018-11-05T00:45:05.216Z,4.90
2018-11-05T00:46:05.209Z,8.70
2018-11-05T00:47:05.246Z,9.60
2018-11-05T00:48:05.184Z,9.90
2018-11-05T00:49:05.175Z,13.30
2018-11-05T00:50:05.166Z,9.70
2018-11-05T00:51:05.159Z,8.40
2018-11-05T00:52:05.142Z,5.40
2018-11-05T00:53:05.169Z,7.00
2018-11-05T00:54:05.125Z,17.90
2018-11-05T00:55:05.107Z,5.30
2018-11-05T00:56:05.102Z,5.70
2018-11-05T00:57:05.095Z,5.90
2018-11-05T00:58:05.077Z,8.70
2018-11-05T00:59:05.101Z,4.70
2018-11-05T01:00:05.062Z,7.30
2018-11-05T01:01:05.043Z,7.20
2018-11-05T01:02:15.333Z,7.50
2018-11-05T01:03:05.028Z,6.40
2018-11-05T01:04:05.012Z,5.80
2018-11-05T01:05:05.040Z,5.70
2018-11-05T01:06:04.989Z,3.50
2018-11-05T01:07:04.989Z,8.70
2018-11-05T01:08:04.979Z,4.60
2018-11-05T01:09:04.965Z,10.50
2018-11-05T01:10:04.972Z,5.60
2018-11-05T01:11:04.985Z,13.20
2018-11-05T01:12:04.936Z,10.70
2018-11-05T01:13:04.914Z,7.50
2018-11-05T01:14:04.911Z,8.20
2018-11-05T01:15:04.906Z,12.70
2018-11-05T01:16:04.886Z,7.90
2018-11-05T01:17:04.889Z,11.80
2018-11-05T01:18:04.867Z,7.30
2018-11-05T01:19:04.857Z,12.50
2018-11-05T01:20:04.839Z,6.00
2018-11-05T01:21:04.833Z,6.60
2018-11-05T01:22:04.822Z,10.40
2018-11-05T01:23:04.843Z,10.60
2018-11-05T01:24:04.800Z,10.90
2018-11-05T01:25:04.787Z,11.90
2018-11-05T01:26:04.777Z,16.00
2018-11-05T01:27:04.769Z,3.60
2018-11-05T01:28:04.782Z,13.30
2018-11-05T01:29:04.913Z,11.00
2018-11-05T01:30:04.731Z,6.60
2018-11-05T01:31:04.729Z,11.30
2018-11-05T01:32:04.717Z,8.80
2018-11-05T01:33:15.255Z,6.80
2018-11-05T01:34:04.689Z,5.20
2018-11-05T01:35:04.697Z,7.20
2018-11-05T01:36:04.672Z,10.20
2018-11-05T01:37:04.664Z,7.20
2018-11-05T01:38:04.644Z,9.50
2018-11-05T01:39:04.637Z,5.50
2018-11-05T01:40:04.631Z,11.10
2018-11-05T01:41:04.785Z,10.20
2018-11-05T01:42:04.600Z,7.40
2018-11-05T01:43:04.597Z,9.60
2018-11-05T01:44:04.592Z,6.80
2018-11-05T01:45:04.571Z,13.80
2018-11-05T01:46:04.564Z,6.30
2018-11-05T01:47:04.583Z,14.20
2018-11-05T01:48:04.537Z,7.40
2018-11-05T01:49:04.622Z,16.70
2018-11-05T01:50:04.512Z,16.30
2018-11-05T01:51:04.505Z,11.90
2018-11-05T01:52:04.496Z,6.50
2018-11-05T01:53:04.527Z,14.70
2018-11-05T01:54:04.476Z,18.40
2018-11-05T01:55:04.469Z,16.40
2018-11-05T01:56:04.455Z,9.90
2018-11-05T01:57:04.437Z,10.00
2018-11-05T01:58:04.431Z,10.70
2018-11-05T01:59:04.454Z,14.80
2018-11-05T02:00:04.412Z,11.50
2018-11-05T02:01:04.401Z,11.00
2018-11-05T02:02:04.391Z,15.90
2018-11-05T02:03:04.377Z,9.70
2018-11-05T02:04:14.827Z,12.20
2018-11-05T02:05:04.351Z,12.50
2018-11-05T02:06:04.337Z,10.00
2018-11-05T02:07:04.331Z,11.00
2018-11-05T02:08:04.317Z,10.80
2018-11-05T02:09:04.303Z,10.80
2018-11-05T02:10:04.615Z,6.10
2018-11-05T02:11:04.293Z,14.00
2018-11-05T02:12:04.277Z,7.20
2018-11-05T02:13:04.271Z,15.10
2018-11-05T02:14:04.264Z,9.30
2018-11-05T02:15:04.251Z,15.80
2018-11-05T02:16:04.306Z,10.00
2018-11-05T02:17:04.220Z,12.40
2018-11-05T02:18:04.211Z,5.30
2018-11-05T02:19:04.197Z,7.80
2018-11-05T02:20:04.191Z,5.40
2018-11-05T02:21:04.178Z,14.80
2018-11-05T02:22:04.207Z,11.50
2018-11-05T02:23:04.160Z,8.50
2018-11-05T02:24:04.146Z,11.80
2018-11-05T02:25:04.137Z,10.90
2018-11-05T02:26:04.121Z,12.40
2018-11-05T02:27:04.125Z,15.10
2018-11-05T02:28:04.296Z,19.40
2018-11-05T02:29:04.089Z,13.80
2018-11-05T02:30:04.081Z,24.20
2018-11-05T02:31:04.067Z,24.00
2018-11-05T02:32:04.058Z,16.90
2018-11-05T02:33:04.050Z,14.70
2018-11-05T02:34:04.074Z,24.70
2018-11-05T02:35:14.288Z,13.70
2018-11-05T02:36:04.012Z,22.60
2018-11-05T02:37:03.999Z,12.90
2018-11-05T02:38:03.996Z,21.70
2018-11-05T02:39:03.982Z,14.70
2018-11-05T02:40:03.990Z,12.30
2018-11-05T02:41:03.960Z,14.00
2018-11-05T02:42:03.948Z,15.90
2018-11-05T02:43:03.942Z,17.30
2018-11-05T02:44:03.924Z,13.80
2018-11-05T02:45:03.917Z,11.80
2018-11-05T02:46:03.945Z,17.00
2018-11-05T02:47:03.893Z,10.60
2018-11-05T02:48:03.884Z,21.30
2018-11-05T02:49:03.876Z,10.80
2018-11-05T02:50:03.863Z,5.20
2018-11-05T02:51:03.850Z,11.30
2018-11-05T02:52:04.024Z,11.90
2018-11-05T02:53:03.831Z,19.80
2018-11-05T02:54:03.818Z,13.10
2018-11-05T02:55:03.860Z,17.00
2018-11-05T02:56:03.802Z,22.90
2018-11-05T02:57:03.789Z,19.90
2018-11-05T02:58:03.796Z,18.00
2018-11-05T02:59:03.771Z,15.10
2018-11-05T03:00:03.751Z,19.50
2018-11-05T03:01:03.742Z,11.70
2018-11-05T03:02:03.737Z,26.00
2018-11-05T03:03:03.736Z,31.20
2018-11-05T03:04:03.735Z,16.50
2018-11-05T03:05:03.702Z,25.50
2018-11-05T03:06:14.114Z,31.60
2018-11-05T03:07:03.676Z,21.70
2018-11-05T03:08:03.662Z,22.20
2018-11-05T03:09:03.660Z,21.50
2018-11-05T03:10:03.848Z,36.10
2018-11-05T03:11:03.637Z,23.90
2018-11-05T03:12:03.624Z,23.50
2018-11-05T03:13:03.616Z,34.40
2018-11-05T03:14:03.599Z,22.50
2018-11-05T03:15:03.642Z,29.50
2018-11-05T03:16:03.622Z,12.40
2018-11-05T03:17:03.567Z,14.40
2018-11-05T03:18:03.557Z,27.20
2018-11-05T03:19:03.548Z,21.80
2018-11-05T03:20:03.540Z,25.20
2018-11-05T03:21:03.531Z,17.70
2018-11-05T03:22:03.672Z,32.40
2018-11-05T03:23:03.510Z,21.00
2018-11-05T03:24:03.493Z,34.10
2018-11-05T03:25:03.488Z,30.00
2018-11-05T03:26:03.474Z,24.50
2018-11-05T03:27:03.458Z,25.30
2018-11-05T03:28:03.622Z,33.80
2018-11-05T03:29:03.437Z,43.80
2018-11-05T03:30:03.438Z,27.10
2018-11-05T03:31:03.420Z,33.00
2018-11-05T03:32:03.412Z,25.40
2018-11-05T03:33:03.394Z,25.80
2018-11-05T03:34:03.425Z,33.70
2018-11-05T03:35:03.370Z,36.70
2018-11-05T03:36:03.465Z,23.60
2018-11-05T03:37:13.796Z,48.90
2018-11-05T03:38:03.343Z,45.30
2018-11-05T03:39:03.328Z,45.90
2018-11-05T03:40:03.339Z,42.20
2018-11-05T03:41:03.305Z,22.30
2018-11-05T03:42:03.300Z,33.50
2018-11-05T03:43:03.287Z,31.10
2018-11-05T03:44:03.281Z,25.70
2018-11-05T03:45:03.271Z,26.40
2018-11-05T03:46:03.309Z,21.90
2018-11-05T03:47:03.251Z,26.00
2018-11-05T03:48:03.233Z,23.10
2018-11-05T03:49:03.228Z,18.30
2018-11-05T03:50:03.211Z,18.60
2018-11-05T03:51:03.203Z,16.00
2018-11-05T03:52:03.246Z,13.70
2018-11-05T03:53:03.185Z,16.70
2018-11-05T03:54:03.171Z,14.00
2018-11-05T03:55:03.160Z,9.70
2018-11-05T03:56:03.334Z,9.40
2018-11-05T03:57:03.138Z,10.20
2018-11-05T03:58:03.149Z,13.80
2018-11-05T03:59:03.113Z,11.50
2018-11-05T04:00:03.115Z,14.90
2018-11-05T04:01:03.156Z,17.80
2018-11-05T04:02:03.080Z,17.40
2018-11-05T04:03:03.076Z,17.80
2018-11-05T04:04:03.102Z,8.20
2018-11-05T04:05:03.058Z,13.90
2018-11-05T04:06:03.041Z,13.90
2018-11-05T04:07:03.034Z,18.40
2018-11-05T04:08:13.681Z,9.10
2018-11-05T04:09:03.006Z,17.10
2018-11-05T04:10:03.196Z,13.30
2018-11-05T04:11:02.985Z,9.30
2018-11-05T04:12:02.976Z,5.80
2018-11-05T04:13:02.967Z,5.60
2018-11-05T04:14:02.957Z,6.70
2018-11-05T04:15:02.951Z,8.10
2018-11-05T04:16:03.094Z,6.20
2018-11-05T04:17:02.920Z,7.80
2018-11-05T04:18:02.911Z,9.50
2018-11-05T04:19:02.895Z,12.30
2018-11-05T04:20:02.895Z,11.00
2018-11-05T04:21:02.878Z,22.30
2018-11-05T04:22:02.909Z,9.70
2018-11-05T04:23:02.857Z,9.00
2018-11-05T04:24:02.847Z,16.30
2018-11-05T04:25:02.845Z,20.40
2018-11-05T04:26:02.821Z,9.30
2018-11-05T04:27:02.820Z,4.50
2018-11-05T04:28:02.846Z,14.60
2018-11-05T04:29:02.787Z,14.50
2018-11-05T04:30:02.780Z,16.50
2018-11-05T04:31:02.770Z,10.30
2018-11-05T04:32:02.757Z,15.00
2018-11-05T04:33:02.764Z,15.50
2018-11-05T04:34:02.776Z,15.50
2018-11-05T04:35:02.731Z,20.70
2018-11-05T04:36:02.719Z,8.70
2018-11-05T04:37:02.701Z,8.70
2018-11-05T04:38:02.696Z,12.00
2018-11-05T04:39:13.551Z,10.60
2018-11-05T04:40:02.673Z,14.10
2018-11-05T04:41:02.664Z,8.00
2018-11-05T04:42:02.650Z,12.10
2018-11-05T04:43:02.636Z,15.30
2018-11-05T04:44:02.624Z,15.70
2018-11-05T04:45:02.666Z,10.30
2018-11-05T04:46:02.610Z,11.50
2018-11-05T04:47:02.601Z,11.80
2018-11-05T04:48:02.585Z,9.80
2018-11-05T04:49:02.581Z,8.80
2018-11-05T04:50:02.561Z,4.70
2018-11-05T04:51:02.600Z,15.00
2018-11-05T04:52:02.554Z,7.60
2018-11-05T04:53:02.531Z,11.20
2018-11-05T04:54:02.526Z,13.00
2018-11-05T04:55:02.511Z,10.40
2018-11-05T04:56:02.496Z,10.60
2018-11-05T04:57:02.529Z,15.00
2018-11-05T04:58:02.482Z,15.50
2018-11-05T04:59:02.465Z,11.20
2018-11-05T05:00:02.460Z,14.00
2018-11-05T05:01:02.457Z,11.40
2018-11-05T05:02:02.444Z,17.30
2018-11-05T05:03:02.613Z,10.50
2018-11-05T05:04:02.414Z,16.10
2018-11-05T05:05:02.406Z,9.40
2018-11-05T05:06:02.390Z,11.40
2018-11-05T05:07:02.382Z,9.00
2018-11-05T05:08:02.367Z,10.10
2018-11-05T05:09:02.378Z,11.50
2018-11-05T05:10:13.802Z,7.90
2018-11-05T05:11:02.334Z,10.30
2018-11-05T05:12:02.323Z,11.00
2018-11-05T05:13:02.320Z,14.00
2018-11-05T05:14:02.302Z,12.00
2018-11-05T05:15:02.340Z,14.90
2018-11-05T05:16:02.298Z,7.60
2018-11-05T05:17:02.281Z,8.20
2018-11-05T05:18:02.267Z,8.90
2018-11-05T05:19:02.259Z,11.60
2018-11-05T05:20:02.239Z,6.60
2018-11-05T05:21:02.266Z,8.20
2018-11-05T05:22:02.221Z,7.20
2018-11-05T05:23:02.431Z,3.70
2018-11-05T05:24:02.201Z,7.80
2018-11-05T05:25:02.186Z,5.60
2018-11-05T05:26:02.181Z,9.30
2018-11-05T05:27:02.350Z,16.80
2018-11-05T05:28:02.150Z,10.40
2018-11-05T05:29:02.142Z,6.20
2018-11-05T05:30:02.140Z,7.70
2018-11-05T05:31:02.120Z,8.10
2018-11-05T05:32:02.110Z,11.40
2018-11-05T05:33:02.194Z,14.70
2018-11-05T05:34:02.093Z,9.40
2018-11-05T05:35:02.082Z,12.90
2018-11-05T05:36:02.067Z,9.20
2018-11-05T05:37:02.061Z,12.20
2018-11-05T05:38:02.047Z,6.00
2018-11-05T05:39:02.074Z,11.80
2018-11-05T05:40:02.024Z,5.90
2018-11-05T05:41:12.038Z,11.80
2018-11-05T05:42:02.008Z,10.20
2018-11-05T05:43:01.991Z,14.30
2018-11-05T05:44:01.981Z,8.50
2018-11-05T05:45:02.159Z,9.60
2018-11-05T05:46:01.963Z,5.10
2018-11-05T05:47:01.958Z,4.40
2018-11-05T05:48:01.938Z,8.70
2018-11-05T05:49:01.932Z,4.20
2018-11-05T05:50:01.978Z,14.40
2018-11-05T05:51:01.997Z,8.90
2018-11-05T05:52:01.892Z,4.20
2018-11-05T05:53:01.881Z,7.70
2018-11-05T05:54:01.876Z,7.00
2018-11-05T05:55:01.866Z,13.50
2018-11-05T05:56:01.862Z,9.10
2018-11-05T05:57:02.034Z,9.50
2018-11-05T05:58:01.834Z,3.20
2018-11-05T05:59:01.830Z,7.60
2018-11-05T06:00:01.956Z,6.10
2018-11-05T06:01:01.802Z,11.70
2018-11-05T06:02:01.943Z,7.70
2018-11-05T06:03:01.795Z,7.40
2018-11-05T06:04:01.772Z,6.90
2018-11-05T06:05:01.803Z,7.20
2018-11-05T06:06:01.887Z,7.30
2018-11-05T06:07:01.735Z,6.70
2018-11-05T06:08:01.724Z,9.70
2018-11-05T06:09:01.751Z,7.30
2018-11-05T06:10:01.714Z,5.30
2018-11-05T06:11:01.688Z,8.20
2018-11-05T06:12:12.267Z,4.90
2018-11-05T06:13:02.428Z,7.70
2018-11-05T06:14:01.666Z,6.50
2018-11-05T06:15:01.680Z,4.20
2018-11-05T06:16:01.889Z,6.50
2018-11-05T06:17:01.625Z,4.40
2018-11-05T06:18:01.622Z,7.60
2018-11-05T06:19:01.603Z,8.70
2018-11-05T06:20:01.600Z,3.20
2018-11-05T06:21:01.629Z,5.80
2018-11-05T06:22:01.758Z,5.30
2018-11-05T06:23:01.567Z,4.20
2018-11-05T06:24:01.556Z,2.80
2018-11-05T06:25:01.551Z,5.00
2018-11-05T06:26:01.531Z,9.70
2018-11-05T06:27:01.558Z,6.00
2018-11-05T06:28:01.509Z,6.20
2018-11-05T06:29:01.495Z,2.60
2018-11-05T06:30:01.487Z,6.80
2018-11-05T06:31:01.474Z,3.40
2018-11-05T06:32:01.465Z,3.10
2018-11-05T06:33:01.498Z,6.30
2018-11-05T06:34:01.442Z,6.30
2018-11-05T06:35:01.493Z,2.30
2018-11-05T06:36:01.430Z,3.50
2018-11-05T06:37:01.410Z,3.70
2018-11-05T06:38:01.404Z,3.40
2018-11-05T06:39:01.582Z,3.30
2018-11-05T06:40:01.433Z,7.20
2018-11-05T06:41:01.411Z,4.00
2018-11-05T06:42:01.362Z,4.20
2018-11-05T06:43:11.395Z,3.60
2018-11-05T06:44:01.427Z,3.40
2018-11-05T06:45:01.456Z,2.90
2018-11-05T06:46:01.312Z,3.40
2018-11-05T06:47:01.304Z,4.60
2018-11-05T06:48:01.298Z,9.50
2018-11-05T06:49:01.356Z,4.50
2018-11-05T06:50:01.276Z,6.70
2018-11-05T06:51:01.435Z,2.00
2018-11-05T06:52:01.265Z,8.00
2018-11-05T06:53:01.425Z,4.10
2018-11-05T06:54:01.225Z,2.90
2018-11-05T06:55:01.223Z,5.10
2018-11-05T06:56:01.202Z,2.60
2018-11-05T06:57:01.233Z,5.60
2018-11-05T06:58:01.189Z,4.20
2018-11-05T06:59:01.171Z,4.50
2018-11-05T07:00:01.168Z,2.70
2018-11-05T07:01:01.150Z,5.30
2018-11-05T07:02:01.145Z,2.80
2018-11-05T07:03:01.316Z,4.40
2018-11-05T07:04:01.114Z,3.80
2018-11-05T07:05:01.110Z,6.80
2018-11-05T07:06:01.270Z,4.90
2018-11-05T07:07:01.085Z,5.30
2018-11-05T07:08:01.079Z,6.50
2018-11-05T07:09:01.105Z,8.50
2018-11-05T07:10:01.199Z,6.20
2018-11-05T07:11:01.048Z,2.60
2018-11-05T07:12:01.039Z,5.60
2018-11-05T07:13:01.024Z,5.80
2018-11-05T07:14:12.004Z,4.50
2018-11-05T07:15:01.008Z,6.90
2018-11-05T07:16:00.990Z,5.40
2018-11-05T07:17:00.982Z,9.20
2018-11-05T07:18:00.973Z,4.60
2018-11-05T07:19:01.250Z,5.20
2018-11-05T07:20:01.013Z,2.40
2018-11-05T07:21:01.022Z,2.90
2018-11-05T07:22:00.956Z,5.30
2018-11-05T07:23:00.915Z,5.00
2018-11-05T07:24:00.902Z,5.70
2018-11-05T07:25:00.926Z,1.60
2018-11-05T07:26:00.918Z,6.10
2018-11-05T07:27:00.888Z,3.60
2018-11-05T07:28:00.865Z,2.50
2018-11-05T07:29:00.851Z,1.70
2018-11-05T07:30:00.896Z,1.90
2018-11-05T07:31:00.830Z,3.70
2018-11-05T07:32:00.860Z,2.40
2018-11-05T07:33:00.807Z,3.70
2018-11-05T07:34:00.999Z,4.10
2018-11-05T07:35:00.786Z,1.90
2018-11-05T07:36:00.784Z,6.90
2018-11-05T07:37:00.759Z,3.40
2018-11-05T07:38:00.949Z,2.30
2018-11-05T07:39:00.737Z,2.10
2018-11-05T07:40:00.730Z,1.10
2018-11-05T07:41:00.723Z,2.70
2018-11-05T07:42:01.609Z,1.70
2018-11-05T07:43:00.699Z,4.50
2018-11-05T07:44:00.908Z,2.20
2018-11-05T07:45:11.267Z,3.90
2018-11-05T07:46:00.664Z,6.30
2018-11-05T07:47:00.660Z,3.70
2018-11-05T07:48:00.645Z,4.00
2018-11-05T07:49:00.653Z,1.50
2018-11-05T07:50:00.708Z,4.80
2018-11-05T07:51:00.625Z,5.60
2018-11-05T07:52:00.641Z,2.80
2018-11-05T07:53:00.585Z,2.10
2018-11-05T07:54:00.583Z,6.50
2018-11-05T07:55:00.574Z,5.20
2018-11-05T07:56:00.687Z,5.80
2018-11-05T07:57:00.550Z,2.20
2018-11-05T07:58:00.535Z,3.20
2018-11-05T07:59:00.565Z,1.50
2018-11-05T08:00:00.560Z,6.10
2018-11-05T08:01:00.501Z,4.70
2018-11-05T08:02:00.527Z,3.60
2018-11-05T08:03:00.576Z,3.60
2018-11-05T08:04:00.473Z,2.00
2018-11-05T08:05:00.478Z,3.60
2018-11-05T08:06:00.488Z,0.80
2018-11-05T08:07:00.438Z,1.80
2018-11-05T08:08:00.463Z,2.00
2018-11-05T08:09:00.573Z,1.90
2018-11-05T08:10:00.409Z,4.00
2018-11-05T08:11:00.395Z,1.70
2018-11-05T08:12:00.385Z,1.90
2018-11-05T08:13:00.499Z,2.90
2018-11-05T08:14:00.552Z,2.10
2018-11-05T08:15:00.353Z,2.50
2018-11-05T08:16:10.834Z,2.70
2018-11-05T08:17:00.326Z,3.90
2018-11-05T08:18:00.319Z,2.20
2018-11-05T08:19:00.315Z,2.30
2018-11-05T08:20:00.336Z,4.80
2018-11-05T08:21:00.312Z,3.90
2018-11-05T08:22:00.276Z,1.40
2018-11-05T08:23:00.269Z,3.80
2018-11-05T08:24:00.280Z,1.70
2018-11-05T08:25:00.337Z,2.20
2018-11-05T08:26:00.284Z,3.60
2018-11-05T08:27:00.221Z,5.40
2018-11-05T08:28:00.209Z,3.70
2018-11-05T08:29:00.201Z,2.10
2018-11-05T08:30:00.196Z,2.10
2018-11-05T08:31:00.178Z,2.20
2018-11-05T08:32:00.204Z,1.50
2018-11-05T08:33:00.151Z,4.90
2018-11-05T08:34:00.147Z,6.50
2018-11-05T08:35:00.136Z,5.90
2018-11-05T08:36:00.120Z,3.60
2018-11-05T08:37:00.122Z,4.80
2018-11-05T08:38:00.147Z,2.70
2018-11-05T08:39:00.091Z,1.50
2018-11-05T08:40:00.117Z,2.50
2018-11-05T08:41:00.073Z,2.80
2018-11-05T08:42:00.058Z,1.60
2018-11-05T08:43:00.043Z,3.70
2018-11-05T08:44:00.081Z,1.40
2018-11-05T08:45:00.028Z,2.10
2018-11-05T08:46:00.017Z,3.20
2018-11-05T08:47:10.494Z,4.20
2018-11-05T08:48:00.014Z,4.80
2018-11-05T08:48:59.976Z,3.90
2018-11-05T08:50:00.060Z,5.10
2018-11-05T08:51:00.069Z,2.30
2018-11-05T08:52:00.025Z,4.20
2018-11-05T08:52:59.933Z,6.90
2018-11-05T08:53:59.954Z,4.00
2018-11-05T08:54:59.920Z,3.60
2018-11-05T08:56:00.039Z,2.10
2018-11-05T08:56:59.897Z,3.60
2018-11-05T08:57:59.888Z,1.30
2018-11-05T08:58:59.884Z,4.50
2018-11-05T08:59:59.866Z,4.70
2018-11-05T09:00:59.943Z,1.80
2018-11-05T09:01:59.892Z,8.40
2018-11-05T09:02:59.837Z,3.10
2018-11-05T09:03:59.821Z,5.90
2018-11-05T09:04:59.833Z,3.30
2018-11-05T09:05:59.808Z,2.90
2018-11-05T09:06:59.790Z,5.90
2018-11-05T09:07:59.807Z,2.10
2018-11-05T09:08:59.780Z,3.70
2018-11-05T09:09:59.898Z,4.00
2018-11-05T09:11:00.287Z,1.60
2018-11-05T09:11:59.760Z,2.30
2018-11-05T09:12:59.725Z,5.00
2018-11-05T09:13:59.758Z,8.70
2018-11-05T09:14:59.702Z,2.30
2018-11-05T09:15:59.727Z,1.60
2018-11-05T09:16:59.721Z,3.60
2018-11-05T09:18:10.796Z,4.30
2018-11-05T09:18:59.659Z,2.90
2018-11-05T09:19:59.686Z,3.20
2018-11-05T09:20:59.634Z,5.50
2018-11-05T09:21:59.621Z,1.70
2018-11-05T09:22:59.641Z,1.50
2018-11-05T09:23:59.608Z,1.90
2018-11-05T09:24:59.598Z,1.70
2018-11-05T09:25:59.623Z,6.70
2018-11-05T09:26:59.580Z,3.00
2018-11-05T09:27:59.704Z,4.60
2018-11-05T09:28:59.555Z,2.70
2018-11-05T09:29:59.540Z,3.50
2018-11-05T09:30:59.526Z,4.10
2018-11-05T09:31:59.556Z,4.00
2018-11-05T09:32:59.504Z,9.70
2018-11-05T09:33:59.494Z,2.30
2018-11-05T09:34:59.483Z,4.80
2018-11-05T09:35:59.477Z,3.70
2018-11-05T09:36:59.465Z,4.90
2018-11-05T09:37:59.602Z,3.80
2018-11-05T09:38:59.439Z,4.50
2018-11-05T09:39:59.429Z,2.50
2018-11-05T09:40:59.428Z,1.30
2018-11-05T09:41:59.414Z,1.70
2018-11-05T09:42:59.455Z,2.10
2018-11-05T09:43:59.430Z,3.40
2018-11-05T09:44:59.380Z,2.70
2018-11-05T09:45:59.368Z,2.40
2018-11-05T09:46:59.349Z,4.70
2018-11-05T09:47:59.352Z,3.50
2018-11-05T09:49:10.070Z,6.60
2018-11-05T09:49:59.317Z,2.90
2018-11-05T09:50:59.338Z,3.20
2018-11-05T09:51:59.303Z,2.50
2018-11-05T09:52:59.291Z,5.80
2018-11-05T09:53:59.286Z,2.50
2018-11-05T09:54:59.303Z,2.60
2018-11-05T09:55:59.257Z,3.90
2018-11-05T09:56:59.290Z,2.10
2018-11-05T09:57:59.236Z,2.10
2018-11-05T09:58:59.236Z,6.90
2018-11-05T09:59:59.217Z,3.10
2018-11-05T10:00:59.388Z,3.50
2018-11-05T10:01:59.196Z,1.60
2018-11-05T10:02:59.263Z,3.80
2018-11-05T10:03:59.238Z,6.00
2018-11-05T10:04:59.303Z,3.40
2018-11-05T10:05:59.150Z,2.20
2018-11-05T10:06:59.177Z,3.30
2018-11-05T10:07:59.132Z,5.90
2018-11-05T10:08:59.135Z,2.10
2018-11-05T10:09:59.111Z,1.70
2018-11-05T10:10:59.152Z,3.80
2018-11-05T10:11:59.084Z,3.50
2018-11-05T10:12:59.090Z,3.00
2018-11-05T10:13:59.069Z,3.50
2018-11-05T10:14:59.065Z,1.90
2018-11-05T10:15:59.043Z,5.10
2018-11-05T10:16:59.050Z,4.70
2018-11-05T10:17:59.024Z,3.90
2018-11-05T10:18:59.100Z,5.60
2018-11-05T10:20:09.116Z,2.80
2018-11-05T10:20:58.985Z,3.60
2018-11-05T10:21:58.970Z,5.80
2018-11-05T10:22:58.961Z,4.30
2018-11-05T10:23:58.949Z,4.10
2018-11-05T10:24:59.092Z,1.60
2018-11-05T10:25:58.932Z,3.00
2018-11-05T10:26:58.928Z,2.50
2018-11-05T10:27:58.917Z,2.90
2018-11-05T10:28:58.899Z,2.00
2018-11-05T10:29:58.899Z,2.80
2018-11-05T10:30:58.928Z,5.60
2018-11-05T10:31:58.874Z,3.40
2018-11-05T10:32:58.869Z,1.40
2018-11-05T10:33:58.842Z,4.90
2018-11-05T10:34:58.834Z,3.60
2018-11-05T10:35:58.825Z,4.20
2018-11-05T10:36:59.025Z,4.20
2018-11-05T10:37:58.805Z,2.90
2018-11-05T10:38:58.795Z,1.50
2018-11-05T10:39:58.779Z,3.70
2018-11-05T10:40:58.809Z,3.50
2018-11-05T10:41:58.762Z,1.50
2018-11-05T10:42:58.786Z,2.80
2018-11-05T10:43:58.735Z,1.80
2018-11-05T10:44:58.730Z,2.70
2018-11-05T10:45:58.722Z,2.20
2018-11-05T10:46:58.705Z,4.00
2018-11-05T10:47:58.696Z,3.60
2018-11-05T10:48:58.722Z,1.20
2018-11-05T10:49:58.676Z,2.10
2018-11-05T10:51:09.160Z,1.60
2018-11-05T10:51:58.827Z,1.10
2018-11-05T10:52:58.680Z,3.40
2018-11-05T10:53:58.631Z,2.20
2018-11-05T10:54:58.661Z,2.70
2018-11-05T10:55:58.608Z,6.30
2018-11-05T10:56:58.661Z,2.10
2018-11-05T10:57:58.632Z,2.40
2018-11-05T10:58:58.600Z,2.00
2018-11-05T10:59:58.562Z,1.30
2018-11-05T11:00:58.594Z,3.00
2018-11-05T11:01:58.557Z,3.20
2018-11-05T11:02:58.526Z,5.90
2018-11-05T11:03:58.615Z,2.50
2018-11-05T11:04:58.507Z,2.80
2018-11-05T11:05:58.501Z,2.30
2018-11-05T11:06:58.526Z,2.60
2018-11-05T11:07:58.472Z,2.10
2018-11-05T11:08:58.491Z,5.80
2018-11-05T11:09:58.461Z,1.60
2018-11-05T11:10:58.443Z,6.00
2018-11-05T11:11:58.428Z,3.80
2018-11-05T11:12:58.438Z,2.90
2018-11-05T11:13:58.423Z,2.40
2018-11-05T11:14:58.456Z,1.90
2018-11-05T11:15:58.385Z,2.40
2018-11-05T11:16:58.373Z,2.40
2018-11-05T11:17:58.371Z,4.20
2018-11-05T11:18:58.374Z,1.60
2018-11-05T11:19:58.345Z,1.50
2018-11-05T11:20:58.332Z,1.20
2018-11-05T11:22:08.774Z,4.70
2018-11-05T11:22:58.313Z,3.90
2018-11-05T11:23:58.300Z,1.50
2018-11-05T11:24:58.326Z,3.90
2018-11-05T11:25:58.278Z,3.60
2018-11-05T11:26:58.274Z,1.90
2018-11-05T11:27:58.422Z,1.80
2018-11-05T11:28:58.513Z,1.30
2018-11-05T11:29:58.238Z,5.60
2018-11-05T11:30:58.374Z,1.40
2018-11-05T11:31:58.580Z,4.10
2018-11-05T11:32:58.206Z,4.70
2018-11-05T11:33:58.186Z,2.60
2018-11-05T11:34:58.179Z,1.20
2018-11-05T11:35:58.168Z,3.20
2018-11-05T11:36:58.474Z,1.40
2018-11-05T11:37:58.159Z,2.70
2018-11-05T11:38:58.142Z,3.60
2018-11-05T11:39:58.125Z,1.90
2018-11-05T11:40:58.119Z,1.00
2018-11-05T11:41:58.106Z,3.90
2018-11-05T11:42:58.135Z,1.30
2018-11-05T11:43:58.141Z,2.30
2018-11-05T11:44:58.250Z,2.70
2018-11-05T11:45:58.104Z,3.70
2018-11-05T11:46:58.066Z,2.40
2018-11-05T11:47:58.046Z,1.80
2018-11-05T11:48:58.065Z,2.90
2018-11-05T11:49:58.022Z,3.30
2018-11-05T11:50:58.011Z,3.30
2018-11-05T11:51:57.993Z,4.10
2018-11-05T11:53:10.160Z,5.30
2018-11-05T11:53:57.978Z,2.40
2018-11-05T11:54:57.994Z,1.60
2018-11-05T11:55:57.949Z,2.60
2018-11-05T11:56:57.942Z,2.30
2018-11-05T11:57:57.930Z,2.60
2018-11-05T11:58:57.929Z,3.30
2018-11-05T11:59:57.910Z,2.10
2018-11-05T12:00:57.935Z,2.30
2018-11-05T12:01:57.913Z,1.20
2018-11-05T12:02:57.882Z,2.50
2018-11-05T12:03:57.871Z,2.10
2018-11-05T12:04:57.870Z,3.50
2018-11-05T12:05:57.934Z,3.40
2018-11-05T12:06:57.874Z,1.90
2018-11-05T12:07:57.820Z,4.10
2018-11-05T12:08:57.807Z,1.60
2018-11-05T12:09:57.800Z,1.50
2018-11-05T12:10:57.789Z,2.60
2018-11-05T12:11:57.780Z,6.20
2018-11-05T12:12:57.805Z,4.10
2018-11-05T12:13:57.801Z,1.30
2018-11-05T12:14:57.967Z,2.70
2018-11-05T12:15:57.735Z,6.50
2018-11-05T12:16:57.726Z,2.90
2018-11-05T12:17:57.709Z,9.30
2018-11-05T12:18:57.751Z,1.80
2018-11-05T12:19:57.690Z,2.50
2018-11-05T12:20:57.679Z,2.50
2018-11-05T12:21:57.667Z,5.00
2018-11-05T12:22:57.661Z,1.50
2018-11-05T12:24:08.664Z,2.00
2018-11-05T12:24:57.714Z,4.10
2018-11-05T12:25:57.628Z,1.70
2018-11-05T12:26:57.615Z,2.00
2018-11-05T12:27:57.608Z,1.40
2018-11-05T12:28:57.597Z,3.30
2018-11-05T12:29:57.601Z,1.90
2018-11-05T12:30:57.577Z,2.20
2018-11-05T12:31:57.561Z,2.30
2018-11-05T12:32:57.560Z,1.90
2018-11-05T12:33:57.545Z,2.70
2018-11-05T12:34:57.526Z,4.80
2018-11-05T12:35:57.561Z,3.30
2018-11-05T12:36:57.507Z,2.70
2018-11-05T12:37:57.500Z,3.80
2018-11-05T12:38:57.573Z,4.80
2018-11-05T12:39:57.483Z,2.30
2018-11-05T12:40:57.467Z,1.80
2018-11-05T12:41:57.489Z,2.30
2018-11-05T12:42:57.447Z,3.40
2018-11-05T12:43:57.439Z,3.20
2018-11-05T12:44:57.530Z,2.20
2018-11-05T12:45:57.412Z,4.00
2018-11-05T12:46:57.405Z,4.80
2018-11-05T12:47:57.434Z,2.70
2018-11-05T12:48:57.385Z,1.10
2018-11-05T12:49:57.372Z,3.60
2018-11-05T12:50:57.361Z,1.30
2018-11-05T12:51:57.349Z,3.90
2018-11-05T12:52:57.348Z,1.10
2018-11-05T12:53:57.525Z,2.20
2018-11-05T12:55:07.699Z,2.10
2018-11-05T12:55:57.305Z,1.10
2018-11-05T12:56:57.296Z,3.50
2018-11-05T12:57:57.284Z,3.50
2018-11-05T12:58:57.266Z,1.80
2018-11-05T12:59:57.297Z,4.30
2018-11-05T13:00:57.289Z,2.90
2018-11-05T13:01:57.241Z,2.90
2018-11-05T13:02:57.223Z,3.20
2018-11-05T13:03:57.275Z,3.20
2018-11-05T13:04:57.209Z,1.70
2018-11-05T13:05:57.242Z,2.00
2018-11-05T13:06:57.183Z,2.30
2018-11-05T13:07:57.175Z,3.60
2018-11-05T13:08:57.163Z,1.30
2018-11-05T13:09:57.158Z,1.50